sensor_id;sensor_type;location;lat;lon;timestamp;P1;durP1;ratioP1;P2;durP2;ratioP2
23270;SDS011;11804;51.118;17.058;2024-03-29T00:02:13;3.17;;;1.40;;
23270;SDS011;11804;51.118;17.058;2024-03-29T00:04:41;3.00;;;1.23;;
23270;SDS011;11804;51.118;17.058;2024-03-29T00:07:09;3.37;;;1.57;;
23270;SDS011;11804;51.118;17.058;2024-03-29T00:09:36;4.50;;;1.70;;
23270;SDS011;11804;51.118;17.058;2024-03-29T00:12:04;3.40;;;1.50;;
23270;SDS011;11804;51.118;17.058;2024-03-29T00:14:32;2.37;;;1.40;;
23270;SDS011;11804;51.118;17.058;2024-03-29T00:17:00;3.07;;;1.67;;
23270;SDS011;11804;51.118;17.058;2024-03-29T00:19:29;3.33;;;1.50;;
23270;SDS011;11804;51.118;17.058;2024-03-29T00:21:58;1.97;;;1.30;;
23270;SDS011;11804;51.118;17.058;2024-03-29T00:24:25;3.07;;;1.40;;
23270;SDS011;11804;51.118;17.058;2024-03-29T00:26:53;2.70;;;1.47;;
23270;SDS011;11804;51.118;17.058;2024-03-29T00:29:21;2.77;;;1.57;;
23270;SDS011;11804;51.118;17.058;2024-03-29T00:31:49;1.87;;;1.27;;
23270;SDS011;11804;51.118;17.058;2024-03-29T00:34:16;1.73;;;1.17;;
23270;SDS011;11804;51.118;17.058;2024-03-29T00:36:44;4.13;;;1.30;;
23270;SDS011;11804;51.118;17.058;2024-03-29T00:39:11;3.37;;;1.40;;
23270;SDS011;11804;51.118;17.058;2024-03-29T00:41:39;2.33;;;1.57;;
23270;SDS011;11804;51.118;17.058;2024-03-29T00:44:06;1.70;;;1.27;;
23270;SDS011;11804;51.118;17.058;2024-03-29T00:46:34;2.77;;;1.33;;
23270;SDS011;11804;51.118;17.058;2024-03-29T00:49:02;2.43;;;1.40;;
23270;SDS011;11804;51.118;17.058;2024-03-29T00:51:29;1.97;;;1.30;;
23270;SDS011;11804;51.118;17.058;2024-03-29T00:53:57;2.13;;;1.33;;
23270;SDS011;11804;51.118;17.058;2024-03-29T00:56:24;2.33;;;1.60;;
23270;SDS011;11804;51.118;17.058;2024-03-29T00:58:52;4.37;;;1.50;;
23270;SDS011;11804;51.118;17.058;2024-03-29T01:01:19;2.63;;;1.17;;
23270;SDS011;11804;51.118;17.058;2024-03-29T01:03:47;3.23;;;1.43;;
23270;SDS011;11804;51.118;17.058;2024-03-29T01:06:15;4.20;;;1.30;;
23270;SDS011;11804;51.118;17.058;2024-03-29T01:08:42;2.73;;;1.33;;
23270;SDS011;11804;51.118;17.058;2024-03-29T01:11:10;2.83;;;1.63;;
23270;SDS011;11804;51.118;17.058;2024-03-29T01:13:37;2.23;;;1.43;;
23270;SDS011;11804;51.118;17.058;2024-03-29T01:16:05;2.57;;;1.60;;
23270;SDS011;11804;51.118;17.058;2024-03-29T01:18:33;3.37;;;1.73;;
23270;SDS011;11804;51.118;17.058;2024-03-29T01:21:01;2.17;;;1.57;;
23270;SDS011;11804;51.118;17.058;2024-03-29T01:23:29;3.10;;;1.57;;
23270;SDS011;11804;51.118;17.058;2024-03-29T01:25:56;2.37;;;1.60;;
23270;SDS011;11804;51.118;17.058;2024-03-29T01:28:24;7.33;;;1.70;;
23270;SDS011;11804;51.118;17.058;2024-03-29T01:30:54;2.30;;;1.30;;
23270;SDS011;11804;51.118;17.058;2024-03-29T01:33:24;2.40;;;1.27;;
23270;SDS011;11804;51.118;17.058;2024-03-29T01:35:52;2.07;;;1.37;;
23270;SDS011;11804;51.118;17.058;2024-03-29T01:38:20;2.20;;;1.30;;
23270;SDS011;11804;51.118;17.058;2024-03-29T01:40:49;2.63;;;1.70;;
23270;SDS011;11804;51.118;17.058;2024-03-29T01:43:17;1.83;;;1.27;;
23270;SDS011;11804;51.118;17.058;2024-03-29T01:45:45;3.30;;;1.70;;
23270;SDS011;11804;51.118;17.058;2024-03-29T01:48:15;2.37;;;1.40;;
23270;SDS011;11804;51.118;17.058;2024-03-29T01:50:44;2.50;;;1.50;;
23270;SDS011;11804;51.118;17.058;2024-03-29T01:53:13;1.27;;;1.07;;
23270;SDS011;11804;51.118;17.058;2024-03-29T01:55:43;2.10;;;1.40;;
23270;SDS011;11804;51.118;17.058;2024-03-29T01:58:11;4.03;;;1.67;;
23270;SDS011;11804;51.118;17.058;2024-03-29T02:00:53;2.60;;;1.40;;
23270;SDS011;11804;51.118;17.058;2024-03-29T02:03:22;2.10;;;1.40;;
23270;SDS011;11804;51.118;17.058;2024-03-29T02:05:53;2.50;;;1.43;;
23270;SDS011;11804;51.118;17.058;2024-03-29T02:08:23;1.97;;;1.30;;
23270;SDS011;11804;51.118;17.058;2024-03-29T02:10:50;3.33;;;1.50;;
23270;SDS011;11804;51.118;17.058;2024-03-29T02:13:18;4.13;;;1.70;;
23270;SDS011;11804;51.118;17.058;2024-03-29T02:15:46;3.03;;;1.40;;
23270;SDS011;11804;51.118;17.058;2024-03-29T02:18:13;3.10;;;1.60;;
23270;SDS011;11804;51.118;17.058;2024-03-29T02:20:41;2.53;;;1.30;;
23270;SDS011;11804;51.118;17.058;2024-03-29T02:23:10;3.80;;;2.20;;
23270;SDS011;11804;51.118;17.058;2024-03-29T02:25:39;6.13;;;1.53;;
23270;SDS011;11804;51.118;17.058;2024-03-29T02:28:07;6.23;;;2.43;;
23270;SDS011;11804;51.118;17.058;2024-03-29T02:30:36;10.43;;;3.80;;
23270;SDS011;11804;51.118;17.058;2024-03-29T02:33:04;17.23;;;6.83;;
23270;SDS011;11804;51.118;17.058;2024-03-29T02:35:31;39.23;;;12.83;;
23270;SDS011;11804;51.118;17.058;2024-03-29T02:37:59;9.73;;;3.63;;
23270;SDS011;11804;51.118;17.058;2024-03-29T02:40:27;12.33;;;3.93;;
23270;SDS011;11804;51.118;17.058;2024-03-29T02:42:54;14.27;;;3.27;;
23270;SDS011;11804;51.118;17.058;2024-03-29T02:45:22;10.33;;;3.33;;
23270;SDS011;11804;51.118;17.058;2024-03-29T02:47:51;5.60;;;2.20;;
23270;SDS011;11804;51.118;17.058;2024-03-29T02:50:18;4.17;;;2.60;;
23270;SDS011;11804;51.118;17.058;2024-03-29T02:52:46;13.43;;;3.00;;
23270;SDS011;11804;51.118;17.058;2024-03-29T02:55:14;9.50;;;3.13;;
23270;SDS011;11804;51.118;17.058;2024-03-29T02:57:43;8.80;;;3.30;;
23270;SDS011;11804;51.118;17.058;2024-03-29T03:00:11;7.20;;;2.63;;
23270;SDS011;11804;51.118;17.058;2024-03-29T03:02:42;4.90;;;2.03;;
23270;SDS011;11804;51.118;17.058;2024-03-29T03:05:09;6.77;;;2.17;;
23270;SDS011;11804;51.118;17.058;2024-03-29T03:07:37;5.43;;;2.53;;
23270;SDS011;11804;51.118;17.058;2024-03-29T03:10:25;4.27;;;2.40;;
23270;SDS011;11804;51.118;17.058;2024-03-29T03:13:10;6.37;;;2.60;;
23270;SDS011;11804;51.118;17.058;2024-03-29T03:15:38;4.07;;;1.80;;
23270;SDS011;11804;51.118;17.058;2024-03-29T03:18:05;3.60;;;1.77;;
23270;SDS011;11804;51.118;17.058;2024-03-29T03:20:33;3.50;;;1.40;;
23270;SDS011;11804;51.118;17.058;2024-03-29T03:23:03;5.67;;;1.43;;
23270;SDS011;11804;51.118;17.058;2024-03-29T03:25:31;4.37;;;1.53;;
23270;SDS011;11804;51.118;17.058;2024-03-29T03:27:59;2.67;;;1.20;;
23270;SDS011;11804;51.118;17.058;2024-03-29T03:30:26;2.00;;;1.40;;
23270;SDS011;11804;51.118;17.058;2024-03-29T03:32:54;2.90;;;1.30;;
23270;SDS011;11804;51.118;17.058;2024-03-29T03:35:23;1.83;;;1.33;;
23270;SDS011;11804;51.118;17.058;2024-03-29T03:37:51;1.30;;;1.10;;
23270;SDS011;11804;51.118;17.058;2024-03-29T03:40:20;3.53;;;1.10;;
23270;SDS011;11804;51.118;17.058;2024-03-29T03:42:47;1.80;;;1.30;;
23270;SDS011;11804;51.118;17.058;2024-03-29T03:45:15;2.07;;;1.20;;
23270;SDS011;11804;51.118;17.058;2024-03-29T03:47:42;1.40;;;1.00;;
23270;SDS011;11804;51.118;17.058;2024-03-29T03:50:10;1.80;;;0.97;;
23270;SDS011;11804;51.118;17.058;2024-03-29T03:52:37;1.73;;;1.10;;
23270;SDS011;11804;51.118;17.058;2024-03-29T03:55:06;2.80;;;1.43;;
23270;SDS011;11804;51.118;17.058;2024-03-29T03:57:34;1.87;;;1.10;;
23270;SDS011;11804;51.118;17.058;2024-03-29T04:00:01;1.57;;;1.00;;
23270;SDS011;11804;51.118;17.058;2024-03-29T04:02:29;1.93;;;1.30;;
23270;SDS011;11804;51.118;17.058;2024-03-29T04:05:00;2.20;;;1.27;;
23270;SDS011;11804;51.118;17.058;2024-03-29T04:07:27;2.00;;;1.43;;
23270;SDS011;11804;51.118;17.058;2024-03-29T04:09:55;3.40;;;1.43;;
23270;SDS011;11804;51.118;17.058;2024-03-29T04:12:24;7.00;;;1.50;;
23270;SDS011;11804;51.118;17.058;2024-03-29T04:14:52;2.27;;;1.20;;
23270;SDS011;11804;51.118;17.058;2024-03-29T04:17:22;3.33;;;1.70;;
23270;SDS011;11804;51.118;17.058;2024-03-29T04:19:50;1.87;;;1.30;;
23270;SDS011;11804;51.118;17.058;2024-03-29T04:22:17;4.77;;;1.20;;
23270;SDS011;11804;51.118;17.058;2024-03-29T04:24:45;2.87;;;1.20;;
23270;SDS011;11804;51.118;17.058;2024-03-29T04:27:12;2.03;;;1.07;;
23270;SDS011;11804;51.118;17.058;2024-03-29T04:29:40;1.47;;;1.10;;
23270;SDS011;11804;51.118;17.058;2024-03-29T04:32:08;1.63;;;1.27;;
23270;SDS011;11804;51.118;17.058;2024-03-29T04:34:36;1.60;;;0.90;;
23270;SDS011;11804;51.118;17.058;2024-03-29T04:37:04;1.97;;;1.23;;
23270;SDS011;11804;51.118;17.058;2024-03-29T04:39:33;1.37;;;0.83;;
23270;SDS011;11804;51.118;17.058;2024-03-29T04:42:03;1.83;;;0.90;;
23270;SDS011;11804;51.118;17.058;2024-03-29T04:44:31;1.50;;;0.90;;
23270;SDS011;11804;51.118;17.058;2024-03-29T04:46:58;2.17;;;1.20;;
23270;SDS011;11804;51.118;17.058;2024-03-29T04:49:30;1.67;;;1.00;;
23270;SDS011;11804;51.118;17.058;2024-03-29T04:52:03;0.87;;;0.70;;
23270;SDS011;11804;51.118;17.058;2024-03-29T04:54:31;2.60;;;0.90;;
23270;SDS011;11804;51.118;17.058;2024-03-29T04:57:00;2.13;;;1.33;;
23270;SDS011;11804;51.118;17.058;2024-03-29T04:59:34;2.87;;;1.20;;
23270;SDS011;11804;51.118;17.058;2024-03-29T05:01:59;4.93;;;1.30;;
23270;SDS011;11804;51.118;17.058;2024-03-29T05:04:27;4.03;;;1.40;;
23270;SDS011;11804;51.118;17.058;2024-03-29T05:06:57;1.30;;;0.97;;
23270;SDS011;11804;51.118;17.058;2024-03-29T05:09:25;1.87;;;1.00;;
23270;SDS011;11804;51.118;17.058;2024-03-29T05:11:53;3.53;;;1.30;;
23270;SDS011;11804;51.118;17.058;2024-03-29T05:14:21;2.80;;;1.20;;
23270;SDS011;11804;51.118;17.058;2024-03-29T05:16:50;9.47;;;1.40;;
23270;SDS011;11804;51.118;17.058;2024-03-29T05:19:17;2.83;;;1.13;;
23270;SDS011;11804;51.118;17.058;2024-03-29T05:21:45;1.93;;;1.03;;
23270;SDS011;11804;51.118;17.058;2024-03-29T05:24:12;2.43;;;1.53;;
23270;SDS011;11804;51.118;17.058;2024-03-29T05:26:40;0.97;;;0.77;;
23270;SDS011;11804;51.118;17.058;2024-03-29T05:29:08;2.63;;;1.10;;
23270;SDS011;11804;51.118;17.058;2024-03-29T05:31:35;1.17;;;0.80;;
23270;SDS011;11804;51.118;17.058;2024-03-29T05:34:03;2.00;;;0.90;;
23270;SDS011;11804;51.118;17.058;2024-03-29T05:36:31;2.63;;;0.83;;
23270;SDS011;11804;51.118;17.058;2024-03-29T05:38:58;1.30;;;1.00;;
23270;SDS011;11804;51.118;17.058;2024-03-29T05:41:26;4.00;;;2.10;;
23270;SDS011;11804;51.118;17.058;2024-03-29T05:43:54;6.87;;;1.23;;
23270;SDS011;11804;51.118;17.058;2024-03-29T05:46:23;5.37;;;1.10;;
23270;SDS011;11804;51.118;17.058;2024-03-29T05:48:50;9.10;;;0.90;;
23270;SDS011;11804;51.118;17.058;2024-03-29T05:51:18;3.20;;;0.63;;
23270;SDS011;11804;51.118;17.058;2024-03-29T05:53:45;1.93;;;0.67;;
23270;SDS011;11804;51.118;17.058;2024-03-29T05:56:13;0.85;;;0.60;;
23270;SDS011;11804;51.118;17.058;2024-03-29T05:58:40;0.93;;;0.72;;
23270;SDS011;11804;51.118;17.058;2024-03-29T06:01:08;1.30;;;0.85;;
23270;SDS011;11804;51.118;17.058;2024-03-29T06:03:35;1.40;;;0.98;;
23270;SDS011;11804;51.118;17.058;2024-03-29T06:06:03;1.60;;;1.00;;
23270;SDS011;11804;51.118;17.058;2024-03-29T06:08:31;1.87;;;1.02;;
23270;SDS011;11804;51.118;17.058;2024-03-29T06:10:59;2.00;;;1.30;;
23270;SDS011;11804;51.118;17.058;2024-03-29T06:13:27;2.95;;;1.30;;
23270;SDS011;11804;51.118;17.058;2024-03-29T06:16:12;1.90;;;0.95;;
23270;SDS011;11804;51.118;17.058;2024-03-29T06:18:58;2.10;;;0.80;;
23270;SDS011;11804;51.118;17.058;2024-03-29T06:21:25;2.15;;;0.93;;
23270;SDS011;11804;51.118;17.058;2024-03-29T06:23:54;0.90;;;0.60;;
23270;SDS011;11804;51.118;17.058;2024-03-29T06:26:21;3.40;;;0.98;;
23270;SDS011;11804;51.118;17.058;2024-03-29T06:28:49;1.87;;;0.80;;
23270;SDS011;11804;51.118;17.058;2024-03-29T06:31:16;2.25;;;0.80;;
23270;SDS011;11804;51.118;17.058;2024-03-29T06:33:44;1.22;;;0.72;;
23270;SDS011;11804;51.118;17.058;2024-03-29T06:36:11;1.55;;;0.60;;
23270;SDS011;11804;51.118;17.058;2024-03-29T06:38:39;1.40;;;0.80;;
23270;SDS011;11804;51.118;17.058;2024-03-29T06:41:06;2.77;;;0.88;;
23270;SDS011;11804;51.118;17.058;2024-03-29T06:43:34;1.72;;;0.65;;
23270;SDS011;11804;51.118;17.058;2024-03-29T06:46:02;2.10;;;0.88;;
23270;SDS011;11804;51.118;17.058;2024-03-29T06:48:31;0.97;;;0.50;;
23270;SDS011;11804;51.118;17.058;2024-03-29T06:50:59;0.90;;;0.53;;
23270;SDS011;11804;51.118;17.058;2024-03-29T06:53:27;15.30;;;0.83;;
23270;SDS011;11804;51.118;17.058;2024-03-29T06:55:55;6.17;;;0.80;;
23270;SDS011;11804;51.118;17.058;2024-03-29T06:58:23;0.83;;;0.50;;
23270;SDS011;11804;51.118;17.058;2024-03-29T07:00:51;1.43;;;0.77;;
23270;SDS011;11804;51.118;17.058;2024-03-29T07:03:19;0.70;;;0.50;;
23270;SDS011;11804;51.118;17.058;2024-03-29T07:05:46;4.80;;;0.60;;
23270;SDS011;11804;51.118;17.058;2024-03-29T07:08:14;1.10;;;0.67;;
23270;SDS011;11804;51.118;17.058;2024-03-29T07:10:42;0.70;;;0.47;;
23270;SDS011;11804;51.118;17.058;2024-03-29T07:13:10;1.27;;;0.63;;
23270;SDS011;11804;51.118;17.058;2024-03-29T07:15:38;1.30;;;0.70;;
23270;SDS011;11804;51.118;17.058;2024-03-29T07:18:06;0.63;;;0.50;;
23270;SDS011;11804;51.118;17.058;2024-03-29T07:20:33;0.60;;;0.50;;
23270;SDS011;11804;51.118;17.058;2024-03-29T07:23:01;0.90;;;0.50;;
23270;SDS011;11804;51.118;17.058;2024-03-29T07:25:29;3.60;;;0.60;;
23270;SDS011;11804;51.118;17.058;2024-03-29T07:27:56;0.57;;;0.40;;
23270;SDS011;11804;51.118;17.058;2024-03-29T07:30:24;1.43;;;0.50;;
23270;SDS011;11804;51.118;17.058;2024-03-29T07:32:51;1.00;;;0.33;;
23270;SDS011;11804;51.118;17.058;2024-03-29T07:35:19;0.90;;;0.40;;
23270;SDS011;11804;51.118;17.058;2024-03-29T07:37:47;0.93;;;0.40;;
23270;SDS011;11804;51.118;17.058;2024-03-29T07:40:16;2.53;;;0.53;;
23270;SDS011;11804;51.118;17.058;2024-03-29T07:42:44;1.10;;;0.67;;
23270;SDS011;11804;51.118;17.058;2024-03-29T07:45:11;0.70;;;0.50;;
23270;SDS011;11804;51.118;17.058;2024-03-29T07:47:39;0.77;;;0.40;;
23270;SDS011;11804;51.118;17.058;2024-03-29T07:50:07;0.77;;;0.40;;
23270;SDS011;11804;51.118;17.058;2024-03-29T07:52:36;0.23;;;0.20;;
23270;SDS011;11804;51.118;17.058;2024-03-29T07:55:05;0.70;;;0.47;;
23270;SDS011;11804;51.118;17.058;2024-03-29T07:57:35;0.33;;;0.30;;
23270;SDS011;11804;51.118;17.058;2024-03-29T08:00:03;0.83;;;0.30;;
23270;SDS011;11804;51.118;17.058;2024-03-29T08:02:32;0.43;;;0.27;;
23270;SDS011;11804;51.118;17.058;2024-03-29T08:05:00;2.37;;;0.50;;
23270;SDS011;11804;51.118;17.058;2024-03-29T08:07:27;1.50;;;0.40;;
23270;SDS011;11804;51.118;17.058;2024-03-29T08:09:56;0.67;;;0.30;;
23270;SDS011;11804;51.118;17.058;2024-03-29T08:12:24;3.37;;;0.33;;
23270;SDS011;11804;51.118;17.058;2024-03-29T08:14:52;2.17;;;0.50;;
23270;SDS011;11804;51.118;17.058;2024-03-29T08:17:20;0.60;;;0.40;;
23270;SDS011;11804;51.118;17.058;2024-03-29T08:19:47;0.70;;;0.47;;
23270;SDS011;11804;51.118;17.058;2024-03-29T08:22:15;2.77;;;0.40;;
23270;SDS011;11804;51.118;17.058;2024-03-29T08:24:42;0.80;;;0.30;;
23270;SDS011;11804;51.118;17.058;2024-03-29T08:27:10;0.50;;;0.30;;
23270;SDS011;11804;51.118;17.058;2024-03-29T08:29:38;0.75;;;0.40;;
23270;SDS011;11804;51.118;17.058;2024-03-29T08:32:07;1.60;;;0.30;;
23270;SDS011;11804;51.118;17.058;2024-03-29T08:34:36;0.43;;;0.30;;
23270;SDS011;11804;51.118;17.058;2024-03-29T08:37:04;0.75;;;0.40;;
23270;SDS011;11804;51.118;17.058;2024-03-29T08:39:32;1.20;;;0.75;;
23270;SDS011;11804;51.118;17.058;2024-03-29T08:42:00;0.68;;;0.40;;
23270;SDS011;11804;51.118;17.058;2024-03-29T08:44:29;4.53;;;0.62;;
23270;SDS011;11804;51.118;17.058;2024-03-29T08:46:58;0.78;;;0.40;;
23270;SDS011;11804;51.118;17.058;2024-03-29T08:49:27;0.53;;;0.30;;
23270;SDS011;11804;51.118;17.058;2024-03-29T08:51:56;0.72;;;0.42;;
23270;SDS011;11804;51.118;17.058;2024-03-29T08:54:25;0.45;;;0.40;;
23270;SDS011;11804;51.118;17.058;2024-03-29T08:56:54;0.30;;;0.20;;
23270;SDS011;11804;51.118;17.058;2024-03-29T08:59:23;0.75;;;0.40;;
23270;SDS011;11804;51.118;17.058;2024-03-29T09:01:50;1.25;;;0.35;;
23270;SDS011;11804;51.118;17.058;2024-03-29T09:04:18;1.22;;;0.30;;
23270;SDS011;11804;51.118;17.058;2024-03-29T09:06:46;0.53;;;0.28;;
23270;SDS011;11804;51.118;17.058;2024-03-29T09:09:14;1.12;;;0.40;;
23270;SDS011;11804;51.118;17.058;2024-03-29T09:11:42;0.90;;;0.53;;
23270;SDS011;11804;51.118;17.058;2024-03-29T09:14:10;1.67;;;0.30;;
23270;SDS011;11804;51.118;17.058;2024-03-29T09:16:38;1.85;;;0.20;;
23270;SDS011;11804;51.118;17.058;2024-03-29T09:19:07;0.65;;;0.33;;
23270;SDS011;11804;51.118;17.058;2024-03-29T09:21:34;1.10;;;0.50;;
23270;SDS011;11804;51.118;17.058;2024-03-29T09:24:03;0.40;;;0.28;;
23270;SDS011;11804;51.118;17.058;2024-03-29T09:26:31;1.37;;;0.40;;
23270;SDS011;11804;51.118;17.058;2024-03-29T09:28:59;0.55;;;0.25;;
23270;SDS011;11804;51.118;17.058;2024-03-29T09:31:27;3.02;;;0.40;;
23270;SDS011;11804;51.118;17.058;2024-03-29T09:33:54;7.55;;;0.68;;
23270;SDS011;11804;51.118;17.058;2024-03-29T09:36:23;0.42;;;0.25;;
23270;SDS011;11804;51.118;17.058;2024-03-29T09:38:51;1.65;;;0.70;;
23270;SDS011;11804;51.118;17.058;2024-03-29T09:41:19;5.80;;;1.42;;
23270;SDS011;11804;51.118;17.058;2024-03-29T09:43:47;0.78;;;0.30;;
23270;SDS011;11804;51.118;17.058;2024-03-29T09:46:16;5.28;;;0.50;;
23270;SDS011;11804;51.118;17.058;2024-03-29T09:48:44;2.15;;;0.53;;
23270;SDS011;11804;51.118;17.058;2024-03-29T09:51:13;2.22;;;0.60;;
23270;SDS011;11804;51.118;17.058;2024-03-29T09:53:43;0.65;;;0.33;;
23270;SDS011;11804;51.118;17.058;2024-03-29T09:56:11;1.45;;;0.40;;
23270;SDS011;11804;51.118;17.058;2024-03-29T09:58:38;0.70;;;0.30;;
23270;SDS011;11804;51.118;17.058;2024-03-29T10:01:07;7.40;;;1.07;;
23270;SDS011;11804;51.118;17.058;2024-03-29T10:03:39;3.35;;;0.30;;
23270;SDS011;11804;51.118;17.058;2024-03-29T10:06:08;2.95;;;0.40;;
23270;SDS011;11804;51.118;17.058;2024-03-29T10:08:39;0.72;;;0.37;;
23270;SDS011;11804;51.118;17.058;2024-03-29T10:11:07;0.57;;;0.20;;
23270;SDS011;11804;51.118;17.058;2024-03-29T10:13:35;1.10;;;0.30;;
23270;SDS011;11804;51.118;17.058;2024-03-29T10:16:03;0.42;;;0.20;;
23270;SDS011;11804;51.118;17.058;2024-03-29T10:18:31;1.17;;;0.30;;
23270;SDS011;11804;51.118;17.058;2024-03-29T10:20:59;0.30;;;0.20;;
23270;SDS011;11804;51.118;17.058;2024-03-29T10:23:31;1.12;;;0.20;;
23270;SDS011;11804;51.118;17.058;2024-03-29T10:26:01;2.92;;;0.47;;
23270;SDS011;11804;51.118;17.058;2024-03-29T10:28:38;17.20;;;1.52;;
23270;SDS011;11804;51.118;17.058;2024-03-29T10:31:03;5.58;;;0.50;;
23270;SDS011;11804;51.118;17.058;2024-03-29T10:33:32;3.02;;;0.30;;
23270;SDS011;11804;51.118;17.058;2024-03-29T10:36:00;0.68;;;0.30;;
23270;SDS011;11804;51.118;17.058;2024-03-29T10:38:31;8.28;;;0.70;;
23270;SDS011;11804;51.118;17.058;2024-03-29T10:40:59;4.05;;;0.40;;
23270;SDS011;11804;51.118;17.058;2024-03-29T10:43:29;0.80;;;0.30;;
23270;SDS011;11804;51.118;17.058;2024-03-29T10:45:57;0.65;;;0.20;;
23270;SDS011;11804;51.118;17.058;2024-03-29T10:48:30;0.98;;;0.23;;
23270;SDS011;11804;51.118;17.058;2024-03-29T10:50:59;0.88;;;0.20;;
23270;SDS011;11804;51.118;17.058;2024-03-29T10:53:27;1.40;;;0.70;;
23270;SDS011;11804;51.118;17.058;2024-03-29T10:55:59;0.47;;;0.30;;
23270;SDS011;11804;51.118;17.058;2024-03-29T10:58:30;0.80;;;0.33;;
23270;SDS011;11804;51.118;17.058;2024-03-29T11:01:01;0.45;;;0.20;;
23270;SDS011;11804;51.118;17.058;2024-03-29T11:03:44;0.65;;;0.42;;
23270;SDS011;11804;51.118;17.058;2024-03-29T11:06:13;1.35;;;0.37;;
23270;SDS011;11804;51.118;17.058;2024-03-29T11:08:42;0.95;;;0.68;;
23270;SDS011;11804;51.118;17.058;2024-03-29T11:11:13;1.02;;;0.50;;
23270;SDS011;11804;51.118;17.058;2024-03-29T11:13:47;1.72;;;0.30;;
23270;SDS011;11804;51.118;17.058;2024-03-29T11:16:22;0.55;;;0.20;;
23270;SDS011;11804;51.118;17.058;2024-03-29T11:18:51;0.17;;;0.17;;
23270;SDS011;11804;51.118;17.058;2024-03-29T11:21:19;0.55;;;0.23;;
23270;SDS011;11804;51.118;17.058;2024-03-29T11:23:49;0.80;;;0.20;;
23270;SDS011;11804;51.118;17.058;2024-03-29T11:26:19;0.88;;;0.40;;
23270;SDS011;11804;51.118;17.058;2024-03-29T11:28:52;0.62;;;0.47;;
23270;SDS011;11804;51.118;17.058;2024-03-29T11:31:17;0.78;;;0.40;;
23270;SDS011;11804;51.118;17.058;2024-03-29T11:33:47;1.40;;;0.60;;
23270;SDS011;11804;51.118;17.058;2024-03-29T11:36:20;0.17;;;0.17;;
23270;SDS011;11804;51.118;17.058;2024-03-29T11:38:53;1.85;;;0.30;;
23270;SDS011;11804;51.118;17.058;2024-03-29T11:41:23;0.45;;;0.17;;
23270;SDS011;11804;51.118;17.058;2024-03-29T11:43:54;0.25;;;0.15;;
23270;SDS011;11804;51.118;17.058;2024-03-29T11:46:22;2.85;;;0.60;;
23270;SDS011;11804;51.118;17.058;2024-03-29T11:48:51;1.02;;;0.50;;
23270;SDS011;11804;51.118;17.058;2024-03-29T11:51:19;0.45;;;0.35;;
23270;SDS011;11804;51.118;17.058;2024-03-29T11:53:49;0.20;;;0.20;;
23270;SDS011;11804;51.118;17.058;2024-03-29T11:56:18;5.35;;;0.60;;
23270;SDS011;11804;51.118;17.058;2024-03-29T11:58:47;0.45;;;0.20;;
23270;SDS011;11804;51.118;17.058;2024-03-29T12:01:15;1.45;;;0.28;;
23270;SDS011;11804;51.118;17.058;2024-03-29T12:03:43;0.53;;;0.20;;
23270;SDS011;11804;51.118;17.058;2024-03-29T12:06:12;0.60;;;0.30;;
23270;SDS011;11804;51.118;17.058;2024-03-29T12:08:43;2.90;;;0.45;;
23270;SDS011;11804;51.118;17.058;2024-03-29T12:11:10;1.22;;;0.57;;
23270;SDS011;11804;51.118;17.058;2024-03-29T12:13:39;0.20;;;0.20;;
23270;SDS011;11804;51.118;17.058;2024-03-29T12:16:07;0.70;;;0.30;;
23270;SDS011;11804;51.118;17.058;2024-03-29T12:18:37;0.50;;;0.15;;
23270;SDS011;11804;51.118;17.058;2024-03-29T12:21:05;0.45;;;0.25;;
23270;SDS011;11804;51.118;17.058;2024-03-29T12:23:35;0.50;;;0.35;;
23270;SDS011;11804;51.118;17.058;2024-03-29T12:26:03;0.93;;;0.20;;
23270;SDS011;11804;51.118;17.058;2024-03-29T12:28:31;0.70;;;0.25;;
23270;SDS011;11804;51.118;17.058;2024-03-29T12:31:00;1.98;;;0.82;;
23270;SDS011;11804;51.118;17.058;2024-03-29T12:33:29;1.37;;;0.47;;
23270;SDS011;11804;51.118;17.058;2024-03-29T12:35:57;0.78;;;0.30;;
23270;SDS011;11804;51.118;17.058;2024-03-29T12:38:25;1.15;;;0.60;;
23270;SDS011;11804;51.118;17.058;2024-03-29T12:40:53;1.20;;;0.42;;
23270;SDS011;11804;51.118;17.058;2024-03-29T12:43:22;1.15;;;0.30;;
23270;SDS011;11804;51.118;17.058;2024-03-29T12:45:50;2.85;;;0.25;;
23270;SDS011;11804;51.118;17.058;2024-03-29T12:48:20;0.42;;;0.20;;
23270;SDS011;11804;51.118;17.058;2024-03-29T12:50:51;0.47;;;0.23;;
23270;SDS011;11804;51.118;17.058;2024-03-29T12:53:19;0.37;;;0.37;;
23270;SDS011;11804;51.118;17.058;2024-03-29T12:55:47;0.37;;;0.30;;
23270;SDS011;11804;51.118;17.058;2024-03-29T12:58:16;0.40;;;0.30;;
23270;SDS011;11804;51.118;17.058;2024-03-29T13:00:46;0.82;;;0.35;;
23270;SDS011;11804;51.118;17.058;2024-03-29T13:03:13;1.75;;;0.20;;
23270;SDS011;11804;51.118;17.058;2024-03-29T13:05:41;0.20;;;0.10;;
23270;SDS011;11804;51.118;17.058;2024-03-29T13:08:10;0.45;;;0.20;;
23270;SDS011;11804;51.118;17.058;2024-03-29T13:10:40;0.35;;;0.30;;
23270;SDS011;11804;51.118;17.058;2024-03-29T13:13:11;2.08;;;0.40;;
23270;SDS011;11804;51.118;17.058;2024-03-29T13:15:39;0.45;;;0.23;;
23270;SDS011;11804;51.118;17.058;2024-03-29T13:18:08;0.37;;;0.20;;
23270;SDS011;11804;51.118;17.058;2024-03-29T13:20:36;0.98;;;0.33;;
23270;SDS011;11804;51.118;17.058;2024-03-29T13:23:08;1.35;;;0.20;;
23270;SDS011;11804;51.118;17.058;2024-03-29T13:25:37;0.57;;;0.30;;
23270;SDS011;11804;51.118;17.058;2024-03-29T13:28:05;0.47;;;0.20;;
23270;SDS011;11804;51.118;17.058;2024-03-29T13:30:36;0.30;;;0.30;;
23270;SDS011;11804;51.118;17.058;2024-03-29T13:33:05;0.40;;;0.30;;
23270;SDS011;11804;51.118;17.058;2024-03-29T13:35:35;0.85;;;0.78;;
23270;SDS011;11804;51.118;17.058;2024-03-29T13:38:05;0.50;;;0.30;;
23270;SDS011;11804;51.118;17.058;2024-03-29T13:40:34;1.35;;;0.45;;
23270;SDS011;11804;51.118;17.058;2024-03-29T13:43:01;0.98;;;0.23;;
23270;SDS011;11804;51.118;17.058;2024-03-29T13:45:29;0.72;;;0.53;;
23270;SDS011;11804;51.118;17.058;2024-03-29T13:47:56;0.20;;;0.20;;
23270;SDS011;11804;51.118;17.058;2024-03-29T13:50:24;0.20;;;0.20;;
23270;SDS011;11804;51.118;17.058;2024-03-29T13:52:52;0.35;;;0.20;;
23270;SDS011;11804;51.118;17.058;2024-03-29T13:55:20;2.40;;;0.45;;
23270;SDS011;11804;51.118;17.058;2024-03-29T13:57:50;1.02;;;0.55;;
23270;SDS011;11804;51.118;17.058;2024-03-29T14:00:17;1.62;;;0.68;;
23270;SDS011;11804;51.118;17.058;2024-03-29T14:02:45;0.53;;;0.37;;
23270;SDS011;11804;51.118;17.058;2024-03-29T14:05:13;1.15;;;0.45;;
23270;SDS011;11804;51.118;17.058;2024-03-29T14:07:40;0.65;;;0.30;;
23270;SDS011;11804;51.118;17.058;2024-03-29T14:10:08;1.17;;;0.40;;
23270;SDS011;11804;51.118;17.058;2024-03-29T14:12:36;3.60;;;0.62;;
23270;SDS011;11804;51.118;17.058;2024-03-29T14:15:04;0.53;;;0.23;;
23270;SDS011;11804;51.118;17.058;2024-03-29T14:17:32;1.30;;;0.35;;
23270;SDS011;11804;51.118;17.058;2024-03-29T14:19:59;0.30;;;0.30;;
23270;SDS011;11804;51.118;17.058;2024-03-29T14:22:27;0.68;;;0.30;;
23270;SDS011;11804;51.118;17.058;2024-03-29T14:24:56;0.35;;;0.25;;
23270;SDS011;11804;51.118;17.058;2024-03-29T14:27:24;0.50;;;0.30;;
23270;SDS011;11804;51.118;17.058;2024-03-29T14:29:52;1.40;;;0.30;;
23270;SDS011;11804;51.118;17.058;2024-03-29T14:32:22;0.50;;;0.20;;
23270;SDS011;11804;51.118;17.058;2024-03-29T14:34:49;2.52;;;0.40;;
23270;SDS011;11804;51.118;17.058;2024-03-29T14:37:18;1.20;;;0.20;;
23270;SDS011;11804;51.118;17.058;2024-03-29T14:39:46;0.70;;;0.42;;
23270;SDS011;11804;51.118;17.058;2024-03-29T14:42:13;1.90;;;0.40;;